sensor_id;sensor_type;location;lat;lon;timestamp;P1;durP1;ratioP1;P2;durP2;ratioP2
43124;SDS011;49182;50.788;7.318;2023-05-19T00:00:35;6.30;;;2.60;;
43124;SDS011;49182;50.788;7.318;2023-05-19T00:03:03;7.72;;;2.45;;
43124;SDS011;49182;50.788;7.318;2023-05-19T00:05:30;7.80;;;3.58;;
43124;SDS011;49182;50.788;7.318;2023-05-19T00:07:58;5.65;;;2.58;;
43124;SDS011;49182;50.788;7.318;2023-05-19T00:10:25;5.13;;;2.78;;
43124;SDS011;49182;50.788;7.318;2023-05-19T00:12:53;5.22;;;2.63;;
43124;SDS011;49182;50.788;7.318;2023-05-19T00:15:20;6.80;;;2.83;;
43124;SDS011;49182;50.788;7.318;2023-05-19T00:17:47;6.50;;;2.65;;
43124;SDS011;49182;50.788;7.318;2023-05-19T00:20:14;4.40;;;2.33;;
43124;SDS011;49182;50.788;7.318;2023-05-19T00:22:41;10.02;;;3.25;;
43124;SDS011;49182;50.788;7.318;2023-05-19T00:25:08;8.48;;;2.90;;
43124;SDS011;49182;50.788;7.318;2023-05-19T00:27:35;5.50;;;2.65;;
43124;SDS011;49182;50.788;7.318;2023-05-19T00:30:03;8.30;;;2.60;;
43124;SDS011;49182;50.788;7.318;2023-05-19T00:32:31;5.32;;;3.00;;
43124;SDS011;49182;50.788;7.318;2023-05-19T00:34:58;6.00;;;2.67;;
43124;SDS011;49182;50.788;7.318;2023-05-19T00:37:25;10.70;;;3.20;;
43124;SDS011;49182;50.788;7.318;2023-05-19T00:39:51;5.53;;;2.85;;
43124;SDS011;49182;50.788;7.318;2023-05-19T00:42:18;13.98;;;3.72;;
43124;SDS011;49182;50.788;7.318;2023-05-19T00:44:46;6.22;;;2.50;;
43124;SDS011;49182;50.788;7.318;2023-05-19T00:47:14;8.75;;;3.28;;
43124;SDS011;49182;50.788;7.318;2023-05-19T00:49:40;10.50;;;3.75;;
43124;SDS011;49182;50.788;7.318;2023-05-19T00:52:07;6.72;;;2.67;;
43124;SDS011;49182;50.788;7.318;2023-05-19T00:54:34;7.20;;;2.63;;
43124;SDS011;49182;50.788;7.318;2023-05-19T00:57:01;6.90;;;2.70;;
43124;SDS011;49182;50.788;7.318;2023-05-19T00:59:28;6.22;;;2.67;;
43124;SDS011;49182;50.788;7.318;2023-05-19T01:01:55;5.25;;;2.30;;
43124;SDS011;49182;50.788;7.318;2023-05-19T01:04:24;7.25;;;2.33;;
43124;SDS011;49182;50.788;7.318;2023-05-19T01:06:51;8.27;;;2.45;;
43124;SDS011;49182;50.788;7.318;2023-05-19T01:09:17;6.97;;;2.60;;
43124;SDS011;49182;50.788;7.318;2023-05-19T01:11:45;7.20;;;2.78;;
43124;SDS011;49182;50.788;7.318;2023-05-19T01:14:11;5.25;;;2.42;;
43124;SDS011;49182;50.788;7.318;2023-05-19T01:16:39;5.82;;;2.38;;
43124;SDS011;49182;50.788;7.318;2023-05-19T01:19:11;10.52;;;2.95;;
43124;SDS011;49182;50.788;7.318;2023-05-19T01:25:01;10.55;;;3.33;;
43124;SDS011;49182;50.788;7.318;2023-05-19T01:27:52;5.38;;;2.70;;
43124;SDS011;49182;50.788;7.318;2023-05-19T01:30:39;6.13;;;2.80;;
43124;SDS011;49182;50.788;7.318;2023-05-19T01:33:08;5.72;;;2.85;;
43124;SDS011;49182;50.788;7.318;2023-05-19T01:35:37;7.35;;;2.72;;
43124;SDS011;49182;50.788;7.318;2023-05-19T01:38:07;6.05;;;2.38;;
43124;SDS011;49182;50.788;7.318;2023-05-19T01:40:34;5.82;;;2.60;;
43124;SDS011;49182;50.788;7.318;2023-05-19T01:43:03;6.85;;;2.50;;
43124;SDS011;49182;50.788;7.318;2023-05-19T01:45:31;8.90;;;2.60;;
43124;SDS011;49182;50.788;7.318;2023-05-19T01:48:01;6.30;;;2.63;;
43124;SDS011;49182;50.788;7.318;2023-05-19T01:50:30;7.25;;;2.95;;
43124;SDS011;49182;50.788;7.318;2023-05-19T01:52:58;8.52;;;2.63;;
43124;SDS011;49182;50.788;7.318;2023-05-19T01:55:25;6.60;;;2.65;;
43124;SDS011;49182;50.788;7.318;2023-05-19T01:57:54;4.95;;;2.50;;
43124;SDS011;49182;50.788;7.318;2023-05-19T02:00:30;22.85;;;4.72;;
43124;SDS011;49182;50.788;7.318;2023-05-19T02:03:11;7.30;;;2.53;;
43124;SDS011;49182;50.788;7.318;2023-05-19T02:05:50;7.35;;;2.63;;
43124;SDS011;49182;50.788;7.318;2023-05-19T02:08:22;9.32;;;2.80;;
43124;SDS011;49182;50.788;7.318;2023-05-19T02:10:56;7.00;;;2.30;;
43124;SDS011;49182;50.788;7.318;2023-05-19T02:13:29;4.63;;;2.58;;
43124;SDS011;49182;50.788;7.318;2023-05-19T02:16:00;8.82;;;3.25;;
43124;SDS011;49182;50.788;7.318;2023-05-19T02:18:32;6.13;;;3.08;;
43124;SDS011;49182;50.788;7.318;2023-05-19T02:20:59;9.50;;;3.00;;
43124;SDS011;49182;50.788;7.318;2023-05-19T02:23:25;7.20;;;3.25;;
43124;SDS011;49182;50.788;7.318;2023-05-19T02:25:52;8.15;;;2.70;;
43124;SDS011;49182;50.788;7.318;2023-05-19T02:28:19;7.00;;;2.97;;
43124;SDS011;49182;50.788;7.318;2023-05-19T02:30:45;8.13;;;3.10;;
43124;SDS011;49182;50.788;7.318;2023-05-19T02:33:12;5.05;;;2.63;;
43124;SDS011;49182;50.788;7.318;2023-05-19T02:35:42;7.25;;;2.80;;
43124;SDS011;49182;50.788;7.318;2023-05-19T02:38:09;5.35;;;2.60;;
43124;SDS011;49182;50.788;7.318;2023-05-19T02:40:35;8.40;;;3.00;;
43124;SDS011;49182;50.788;7.318;2023-05-19T02:43:02;9.65;;;2.95;;
43124;SDS011;49182;50.788;7.318;2023-05-19T02:45:29;8.25;;;2.22;;
43124;SDS011;49182;50.788;7.318;2023-05-19T02:47:56;5.22;;;2.50;;
43124;SDS011;49182;50.788;7.318;2023-05-19T02:50:23;6.55;;;2.72;;
43124;SDS011;49182;50.788;7.318;2023-05-19T02:52:52;6.35;;;2.60;;
43124;SDS011;49182;50.788;7.318;2023-05-19T02:55:18;5.03;;;2.45;;
43124;SDS011;49182;50.788;7.318;2023-05-19T02:57:45;5.45;;;2.58;;
43124;SDS011;49182;50.788;7.318;2023-05-19T03:00:12;5.22;;;2.30;;
43124;SDS011;49182;50.788;7.318;2023-05-19T03:02:39;5.32;;;2.50;;
43124;SDS011;49182;50.788;7.318;2023-05-19T03:05:07;7.78;;;2.55;;
43124;SDS011;49182;50.788;7.318;2023-05-19T03:07:34;4.32;;;2.40;;
43124;SDS011;49182;50.788;7.318;2023-05-19T03:10:02;5.93;;;2.03;;
43124;SDS011;49182;50.788;7.318;2023-05-19T03:12:30;5.90;;;2.40;;
43124;SDS011;49182;50.788;7.318;2023-05-19T03:14:56;4.75;;;2.47;;
43124;SDS011;49182;50.788;7.318;2023-05-19T03:17:23;7.32;;;2.28;;
43124;SDS011;49182;50.788;7.318;2023-05-19T03:19:50;4.93;;;2.45;;
43124;SDS011;49182;50.788;7.318;2023-05-19T03:22:17;9.07;;;2.60;;
43124;SDS011;49182;50.788;7.318;2023-05-19T03:24:43;7.75;;;3.10;;
43124;SDS011;49182;50.788;7.318;2023-05-19T03:27:11;6.03;;;3.05;;
43124;SDS011;49182;50.788;7.318;2023-05-19T03:29:38;7.15;;;2.72;;
43124;SDS011;49182;50.788;7.318;2023-05-19T03:32:05;6.88;;;2.60;;
43124;SDS011;49182;50.788;7.318;2023-05-19T03:34:32;7.93;;;2.53;;
43124;SDS011;49182;50.788;7.318;2023-05-19T03:36:59;6.97;;;2.35;;
43124;SDS011;49182;50.788;7.318;2023-05-19T03:39:26;4.90;;;2.58;;
43124;SDS011;49182;50.788;7.318;2023-05-19T03:41:52;4.80;;;2.33;;
43124;SDS011;49182;50.788;7.318;2023-05-19T03:44:21;6.03;;;2.28;;
43124;SDS011;49182;50.788;7.318;2023-05-19T03:46:47;4.20;;;2.38;;
43124;SDS011;49182;50.788;7.318;2023-05-19T03:49:17;5.20;;;2.92;;
43124;SDS011;49182;50.788;7.318;2023-05-19T03:51:56;6.30;;;3.20;;
43124;SDS011;49182;50.788;7.318;2023-05-19T03:54:30;5.07;;;2.67;;
43124;SDS011;49182;50.788;7.318;2023-05-19T03:56:57;4.63;;;2.70;;
43124;SDS011;49182;50.788;7.318;2023-05-19T03:59:25;5.10;;;2.40;;
43124;SDS011;49182;50.788;7.318;2023-05-19T04:01:51;5.38;;;2.60;;
43124;SDS011;49182;50.788;7.318;2023-05-19T04:04:18;5.13;;;2.40;;
43124;SDS011;49182;50.788;7.318;2023-05-19T04:06:45;4.72;;;2.40;;
43124;SDS011;49182;50.788;7.318;2023-05-19T04:09:13;6.40;;;2.75;;
43124;SDS011;49182;50.788;7.318;2023-05-19T04:11:41;4.65;;;2.58;;
43124;SDS011;49182;50.788;7.318;2023-05-19T04:14:08;4.45;;;2.20;;
43124;SDS011;49182;50.788;7.318;2023-05-19T04:16:36;4.80;;;2.45;;
43124;SDS011;49182;50.788;7.318;2023-05-19T04:19:03;5.07;;;2.40;;
43124;SDS011;49182;50.788;7.318;2023-05-19T04:21:30;4.18;;;2.00;;
43124;SDS011;49182;50.788;7.318;2023-05-19T04:23:56;5.47;;;2.40;;
43124;SDS011;49182;50.788;7.318;2023-05-19T04:26:24;7.13;;;2.35;;
43124;SDS011;49182;50.788;7.318;2023-05-19T04:28:51;4.95;;;2.50;;
43124;SDS011;49182;50.788;7.318;2023-05-19T04:31:18;5.35;;;2.03;;
43124;SDS011;49182;50.788;7.318;2023-05-19T04:33:46;3.75;;;2.10;;
43124;SDS011;49182;50.788;7.318;2023-05-19T04:36:13;4.20;;;1.90;;
43124;SDS011;49182;50.788;7.318;2023-05-19T04:38:41;4.40;;;2.10;;
43124;SDS011;49182;50.788;7.318;2023-05-19T04:41:10;8.10;;;2.00;;
43124;SDS011;49182;50.788;7.318;2023-05-19T04:43:38;5.88;;;1.95;;
43124;SDS011;49182;50.788;7.318;2023-05-19T04:46:05;4.30;;;1.90;;
43124;SDS011;49182;50.788;7.318;2023-05-19T04:48:32;5.95;;;2.05;;
43124;SDS011;49182;50.788;7.318;2023-05-19T04:51:00;5.88;;;2.30;;
43124;SDS011;49182;50.788;7.318;2023-05-19T04:53:27;6.10;;;2.10;;
43124;SDS011;49182;50.788;7.318;2023-05-19T04:55:53;4.90;;;2.53;;
43124;SDS011;49182;50.788;7.318;2023-05-19T04:58:21;5.50;;;3.15;;
43124;SDS011;49182;50.788;7.318;2023-05-19T05:00:48;5.43;;;2.70;;
43124;SDS011;49182;50.788;7.318;2023-05-19T05:03:14;6.63;;;2.63;;
43124;SDS011;49182;50.788;7.318;2023-05-19T05:05:41;5.20;;;2.00;;
43124;SDS011;49182;50.788;7.318;2023-05-19T05:08:10;5.97;;;2.35;;
43124;SDS011;49182;50.788;7.318;2023-05-19T05:10:41;6.70;;;2.60;;
43124;SDS011;49182;50.788;7.318;2023-05-19T05:13:07;7.35;;;2.25;;
43124;SDS011;49182;50.788;7.318;2023-05-19T05:15:37;5.47;;;2.17;;
43124;SDS011;49182;50.788;7.318;2023-05-19T05:18:05;6.30;;;2.25;;
43124;SDS011;49182;50.788;7.318;2023-05-19T05:20:33;7.47;;;2.70;;
43124;SDS011;49182;50.788;7.318;2023-05-19T05:23:00;6.43;;;2.90;;
43124;SDS011;49182;50.788;7.318;2023-05-19T05:25:31;4.57;;;2.15;;
43124;SDS011;49182;50.788;7.318;2023-05-19T05:27:58;6.53;;;2.58;;
43124;SDS011;49182;50.788;7.318;2023-05-19T05:30:26;6.18;;;2.85;;
43124;SDS011;49182;50.788;7.318;2023-05-19T05:32:53;9.38;;;2.88;;
43124;SDS011;49182;50.788;7.318;2023-05-19T05:35:28;6.88;;;2.97;;
43124;SDS011;49182;50.788;7.318;2023-05-19T05:37:55;6.03;;;2.58;;
43124;SDS011;49182;50.788;7.318;2023-05-19T05:40:23;5.97;;;2.40;;
43124;SDS011;49182;50.788;7.318;2023-05-19T05:42:52;5.28;;;2.45;;
43124;SDS011;49182;50.788;7.318;2023-05-19T05:45:20;7.30;;;2.90;;
43124;SDS011;49182;50.788;7.318;2023-05-19T05:47:51;7.85;;;2.53;;
43124;SDS011;49182;50.788;7.318;2023-05-19T05:50:18;6.07;;;2.92;;
43124;SDS011;49182;50.788;7.318;2023-05-19T05:52:46;5.20;;;2.28;;
43124;SDS011;49182;50.788;7.318;2023-05-19T05:55:16;5.90;;;2.42;;
43124;SDS011;49182;50.788;7.318;2023-05-19T05:57:43;4.32;;;2.33;;
43124;SDS011;49182;50.788;7.318;2023-05-19T06:00:11;6.25;;;2.97;;
43124;SDS011;49182;50.788;7.318;2023-05-19T06:02:41;6.40;;;2.58;;
43124;SDS011;49182;50.788;7.318;2023-05-19T06:05:08;8.23;;;2.90;;
43124;SDS011;49182;50.788;7.318;2023-05-19T06:07:35;5.43;;;2.20;;
43124;SDS011;49182;50.788;7.318;2023-05-19T06:10:02;7.15;;;2.47;;
43124;SDS011;49182;50.788;7.318;2023-05-19T06:12:30;6.10;;;2.38;;
43124;SDS011;49182;50.788;7.318;2023-05-19T06:14:57;7.32;;;2.70;;
43124;SDS011;49182;50.788;7.318;2023-05-19T06:17:40;6.68;;;2.70;;
43124;SDS011;49182;50.788;7.318;2023-05-19T06:20:07;6.90;;;2.60;;
43124;SDS011;49182;50.788;7.318;2023-05-19T06:22:34;5.85;;;2.28;;
43124;SDS011;49182;50.788;7.318;2023-05-19T06:25:02;8.95;;;2.47;;
43124;SDS011;49182;50.788;7.318;2023-05-19T06:27:29;4.93;;;2.72;;
43124;SDS011;49182;50.788;7.318;2023-05-19T06:30:00;5.43;;;2.72;;
43124;SDS011;49182;50.788;7.318;2023-05-19T06:32:30;6.75;;;2.45;;
43124;SDS011;49182;50.788;7.318;2023-05-19T06:35:00;9.82;;;2.42;;
43124;SDS011;49182;50.788;7.318;2023-05-19T06:37:26;6.45;;;2.53;;
43124;SDS011;49182;50.788;7.318;2023-05-19T06:39:54;4.70;;;2.50;;
43124;SDS011;49182;50.788;7.318;2023-05-19T06:42:20;6.80;;;2.20;;
43124;SDS011;49182;50.788;7.318;2023-05-19T06:44:55;7.63;;;2.13;;
43124;SDS011;49182;50.788;7.318;2023-05-19T06:47:22;5.38;;;2.50;;
43124;SDS011;49182;50.788;7.318;2023-05-19T06:49:49;6.63;;;2.60;;
43124;SDS011;49182;50.788;7.318;2023-05-19T06:52:18;4.80;;;2.20;;
43124;SDS011;49182;50.788;7.318;2023-05-19T06:54:45;8.30;;;2.38;;
43124;SDS011;49182;50.788;7.318;2023-05-19T06:57:11;5.75;;;2.17;;
43124;SDS011;49182;50.788;7.318;2023-05-19T06:59:38;5.20;;;2.00;;
43124;SDS011;49182;50.788;7.318;2023-05-19T07:02:05;7.93;;;2.17;;
43124;SDS011;49182;50.788;7.318;2023-05-19T07:04:33;6.35;;;2.30;;
43124;SDS011;49182;50.788;7.318;2023-05-19T07:07:00;5.15;;;2.15;;
43124;SDS011;49182;50.788;7.318;2023-05-19T07:09:28;4.18;;;1.88;;
43124;SDS011;49182;50.788;7.318;2023-05-19T07:11:55;6.45;;;2.33;;
43124;SDS011;49182;50.788;7.318;2023-05-19T07:14:22;6.43;;;2.10;;
43124;SDS011;49182;50.788;7.318;2023-05-19T07:16:49;6.97;;;1.80;;
43124;SDS011;49182;50.788;7.318;2023-05-19T07:19:16;8.82;;;2.05;;
43124;SDS011;49182;50.788;7.318;2023-05-19T07:21:43;6.53;;;2.40;;
43124;SDS011;49182;50.788;7.318;2023-05-19T07:24:10;6.65;;;1.90;;
43124;SDS011;49182;50.788;7.318;2023-05-19T07:26:38;5.50;;;1.88;;
43124;SDS011;49182;50.788;7.318;2023-05-19T07:29:05;6.55;;;1.90;;
43124;SDS011;49182;50.788;7.318;2023-05-19T07:31:32;5.28;;;1.88;;
43124;SDS011;49182;50.788;7.318;2023-05-19T07:33:59;8.40;;;1.95;;
43124;SDS011;49182;50.788;7.318;2023-05-19T07:36:25;6.35;;;1.88;;
43124;SDS011;49182;50.788;7.318;2023-05-19T07:38:52;9.73;;;2.55;;
43124;SDS011;49182;50.788;7.318;2023-05-19T07:41:19;4.45;;;1.50;;
43124;SDS011;49182;50.788;7.318;2023-05-19T07:43:47;4.68;;;1.52;;
43124;SDS011;49182;50.788;7.318;2023-05-19T07:46:13;5.30;;;1.92;;
43124;SDS011;49182;50.788;7.318;2023-05-19T07:48:40;6.40;;;1.40;;
43124;SDS011;49182;50.788;7.318;2023-05-19T07:51:07;6.32;;;1.80;;
43124;SDS011;49182;50.788;7.318;2023-05-19T07:53:33;6.13;;;1.60;;
43124;SDS011;49182;50.788;7.318;2023-05-19T07:56:00;5.22;;;1.58;;
43124;SDS011;49182;50.788;7.318;2023-05-19T07:58:27;4.45;;;1.60;;
43124;SDS011;49182;50.788;7.318;2023-05-19T08:00:56;5.47;;;1.73;;
43124;SDS011;49182;50.788;7.318;2023-05-19T08:03:23;5.40;;;1.92;;
43124;SDS011;49182;50.788;7.318;2023-05-19T08:05:50;5.60;;;1.52;;
43124;SDS011;49182;50.788;7.318;2023-05-19T08:08:17;7.55;;;1.60;;
43124;SDS011;49182;50.788;7.318;2023-05-19T08:10:44;4.93;;;1.60;;
43124;SDS011;49182;50.788;7.318;2023-05-19T08:13:11;7.60;;;1.40;;
43124;SDS011;49182;50.788;7.318;2023-05-19T08:15:37;9.13;;;1.65;;
43124;SDS011;49182;50.788;7.318;2023-05-19T08:18:06;6.45;;;1.83;;
43124;SDS011;49182;50.788;7.318;2023-05-19T08:20:32;6.28;;;2.08;;
43124;SDS011;49182;50.788;7.318;2023-05-19T08:22:59;7.43;;;1.45;;
43124;SDS011;49182;50.788;7.318;2023-05-19T08:25:26;6.40;;;2.55;;
43124;SDS011;49182;50.788;7.318;2023-05-19T08:27:53;6.22;;;1.70;;
43124;SDS011;49182;50.788;7.318;2023-05-19T08:30:19;4.45;;;1.55;;
43124;SDS011;49182;50.788;7.318;2023-05-19T08:32:46;7.45;;;1.75;;
43124;SDS011;49182;50.788;7.318;2023-05-19T08:35:14;5.72;;;1.60;;
43124;SDS011;49182;50.788;7.318;2023-05-19T08:37:41;6.07;;;1.60;;
43124;SDS011;49182;50.788;7.318;2023-05-19T08:40:08;5.82;;;1.58;;
43124;SDS011;49182;50.788;7.318;2023-05-19T08:42:41;6.45;;;2.00;;
43124;SDS011;49182;50.788;7.318;2023-05-19T08:45:07;6.18;;;1.70;;
43124;SDS011;49182;50.788;7.318;2023-05-19T08:47:35;7.22;;;1.75;;
43124;SDS011;49182;50.788;7.318;2023-05-19T08:50:02;4.32;;;1.50;;
43124;SDS011;49182;50.788;7.318;2023-05-19T08:52:34;4.78;;;1.80;;
43124;SDS011;49182;50.788;7.318;2023-05-19T08:55:08;6.03;;;1.60;;
43124;SDS011;49182;50.788;7.318;2023-05-19T08:57:40;6.75;;;1.40;;
43124;SDS011;49182;50.788;7.318;2023-05-19T09:00:07;5.50;;;1.75;;
43124;SDS011;49182;50.788;7.318;2023-05-19T09:02:36;10.65;;;1.80;;
43124;SDS011;49182;50.788;7.318;2023-05-19T09:05:20;4.20;;;1.52;;
43124;SDS011;49182;50.788;7.318;2023-05-19T09:07:49;5.03;;;1.42;;
43124;SDS011;49182;50.788;7.318;2023-05-19T09:10:16;4.63;;;1.30;;
43124;SDS011;49182;50.788;7.318;2023-05-19T09:12:43;6.40;;;1.60;;
43124;SDS011;49182;50.788;7.318;2023-05-19T09:15:11;5.18;;;2.20;;
43124;SDS011;49182;50.788;7.318;2023-05-19T09:17:39;4.28;;;1.30;;
43124;SDS011;49182;50.788;7.318;2023-05-19T09:20:06;6.03;;;1.45;;
43124;SDS011;49182;50.788;7.318;2023-05-19T09:22:33;4.90;;;1.40;;
43124;SDS011;49182;50.788;7.318;2023-05-19T09:25:01;7.50;;;1.50;;
43124;SDS011;49182;50.788;7.318;2023-05-19T09:27:28;5.85;;;1.13;;
43124;SDS011;49182;50.788;7.318;2023-05-19T09:29:57;6.28;;;1.60;;
43124;SDS011;49182;50.788;7.318;2023-05-19T09:32:32;3.40;;;1.15;;
43124;SDS011;49182;50.788;7.318;2023-05-19T09:35:01;3.78;;;1.30;;
43124;SDS011;49182;50.788;7.318;2023-05-19T09:37:28;5.22;;;1.13;;
43124;SDS011;49182;50.788;7.318;2023-05-19T09:39:56;3.60;;;1.23;;
43124;SDS011;49182;50.788;7.318;2023-05-19T09:42:24;4.72;;;1.58;;
43124;SDS011;49182;50.788;7.318;2023-05-19T09:44:57;4.93;;;1.42;;
43124;SDS011;49182;50.788;7.318;2023-05-19T09:47:24;5.13;;;1.50;;
43124;SDS011;49182;50.788;7.318;2023-05-19T09:49:51;5.00;;;1.45;;
43124;SDS011;49182;50.788;7.318;2023-05-19T09:52:19;3.25;;;1.10;;
43124;SDS011;49182;50.788;7.318;2023-05-19T09:54:45;4.55;;;1.48;;
43124;SDS011;49182;50.788;7.318;2023-05-19T09:57:13;8.52;;;2.00;;
43124;SDS011;49182;50.788;7.318;2023-05-19T09:59:42;6.15;;;1.50;;
43124;SDS011;49182;50.788;7.318;2023-05-19T10:02:11;3.30;;;1.30;;
43124;SDS011;49182;50.788;7.318;2023-05-19T10:04:41;3.60;;;1.40;;
43124;SDS011;49182;50.788;7.318;2023-05-19T10:07:09;6.50;;;1.73;;
43124;SDS011;49182;50.788;7.318;2023-05-19T10:09:37;3.33;;;1.42;;
43124;SDS011;49182;50.788;7.318;2023-05-19T10:12:06;3.97;;;1.38;;
43124;SDS011;49182;50.788;7.318;2023-05-19T10:14:34;5.78;;;2.28;;
43124;SDS011;49182;50.788;7.318;2023-05-19T10:17:03;3.80;;;1.17;;
43124;SDS011;49182;50.788;7.318;2023-05-19T10:19:30;3.25;;;1.15;;
43124;SDS011;49182;50.788;7.318;2023-05-19T10:21:57;4.35;;;1.25;;
43124;SDS011;49182;50.788;7.318;2023-05-19T10:24:23;3.70;;;1.40;;
43124;SDS011;49182;50.788;7.318;2023-05-19T10:26:53;6.60;;;1.42;;
43124;SDS011;49182;50.788;7.318;2023-05-19T10:29:24;5.38;;;1.45;;
43124;SDS011;49182;50.788;7.318;2023-05-19T10:31:53;4.30;;;1.37;;
43124;SDS011;49182;50.788;7.318;2023-05-19T10:34:31;4.30;;;1.63;;
43124;SDS011;49182;50.788;7.318;2023-05-19T10:37:15;6.63;;;1.20;;
43124;SDS011;49182;50.788;7.318;2023-05-19T10:39:49;5.72;;;1.70;;
43124;SDS011;49182;50.788;7.318;2023-05-19T10:42:17;3.72;;;1.02;;
43124;SDS011;49182;50.788;7.318;2023-05-19T10:44:56;3.80;;;1.33;;
43124;SDS011;49182;50.788;7.318;2023-05-19T10:47:28;8.73;;;1.40;;
43124;SDS011;49182;50.788;7.318;2023-05-19T10:49:56;4.32;;;1.60;;
43124;SDS011;49182;50.788;7.318;2023-05-19T10:52:25;3.95;;;1.23;;
43124;SDS011;49182;50.788;7.318;2023-05-19T10:54:52;4.07;;;1.40;;
43124;SDS011;49182;50.788;7.318;2023-05-19T10:57:20;3.75;;;1.23;;
43124;SDS011;49182;50.788;7.318;2023-05-19T10:59:51;5.97;;;1.48;;
43124;SDS011;49182;50.788;7.318;2023-05-19T11:02:36;3.17;;;1.20;;
43124;SDS011;49182;50.788;7.318;2023-05-19T11:05:09;5.63;;;1.30;;
43124;SDS011;49182;50.788;7.318;2023-05-19T11:07:39;3.42;;;1.38;;
43124;SDS011;49182;50.788;7.318;2023-05-19T11:10:07;5.90;;;1.45;;
43124;SDS011;49182;50.788;7.318;2023-05-19T11:12:43;3.35;;;1.23;;
43124;SDS011;49182;50.788;7.318;2023-05-19T11:15:11;5.80;;;1.50;;
43124;SDS011;49182;50.788;7.318;2023-05-19T11:17:39;4.43;;;1.38;;
43124;SDS011;49182;50.788;7.318;2023-05-19T11:20:06;5.90;;;1.52;;
43124;SDS011;49182;50.788;7.318;2023-05-19T11:22:55;7.07;;;1.33;;
43124;SDS011;49182;50.788;7.318;2023-05-19T11:25:39;4.35;;;1.38;;
43124;SDS011;49182;50.788;7.318;2023-05-19T11:28:06;8.52;;;1.65;;
43124;SDS011;49182;50.788;7.318;2023-05-19T11:30:33;3.92;;;1.30;;
43124;SDS011;49182;50.788;7.318;2023-05-19T11:33:00;7.97;;;1.60;;
43124;SDS011;49182;50.788;7.318;2023-05-19T11:35:29;3.65;;;1.25;;
43124;SDS011;49182;50.788;7.318;2023-05-19T11:38:01;5.05;;;1.35;;
43124;SDS011;49182;50.788;7.318;2023-05-19T11:40:29;4.97;;;1.35;;
43124;SDS011;49182;50.788;7.318;2023-05-19T11:42:55;4.63;;;1.60;;
43124;SDS011;49182;50.788;7.318;2023-05-19T11:45:23;5.45;;;2.03;;
43124;SDS011;49182;50.788;7.318;2023-05-19T11:47:50;7.38;;;1.90;;
43124;SDS011;49182;50.788;7.318;2023-05-19T11:50:29;5.22;;;1.50;;
43124;SDS011;49182;50.788;7.318;2023-05-19T11:52:56;5.43;;;1.83;;
43124;SDS011;49182;50.788;7.318;2023-05-19T11:55:25;4.25;;;1.52;;
43124;SDS011;49182;50.788;7.318;2023-05-19T11:57:55;3.03;;;1.20;;
43124;SDS011;49182;50.788;7.318;2023-05-19T12:00:33;7.35;;;2.10;;
43124;SDS011;49182;50.788;7.318;2023-05-19T12:03:01;4.63;;;1.75;;
43124;SDS011;49182;50.788;7.318;2023-05-19T12:05:29;3.60;;;1.30;;
43124;SDS011;49182;50.788;7.318;2023-05-19T12:07:59;4.90;;;1.30;;
43124;SDS011;49182;50.788;7.318;2023-05-19T12:10:26;5.68;;;1.20;;
43124;SDS011;49182;50.788;7.318;2023-05-19T12:12:54;5.38;;;1.27;;
43124;SDS011;49182;50.788;7.318;2023-05-19T12:15:21;5.00;;;1.10;;
43124;SDS011;49182;50.788;7.318;2023-05-19T12:17:49;8.30;;;2.10;;
43124;SDS011;49182;50.788;7.318;2023-05-19T12:20:16;4.07;;;1.20;;
43124;SDS011;49182;50.788;7.318;2023-05-19T12:22:45;4.47;;;1.30;;
43124;SDS011;49182;50.788;7.318;2023-05-19T12:25:13;4.57;;;1.38;;
43124;SDS011;49182;50.788;7.318;2023-05-19T12:27:41;3.90;;;1.25;;
43124;SDS011;49182;50.788;7.318;2023-05-19T12:30:09;3.60;;;1.33;;
43124;SDS011;49182;50.788;7.318;2023-05-19T12:32:36;4.18;;;1.10;;
43124;SDS011;49182;50.788;7.318;2023-05-19T12:35:04;3.80;;;1.20;;
43124;SDS011;49182;50.788;7.318;2023-05-19T12:37:31;3.97;;;1.15;;
43124;SDS011;49182;50.788;7.318;2023-05-19T12:40:00;4.05;;;1.10;;
43124;SDS011;49182;50.788;7.318;2023-05-19T12:42:27;4.38;;;1.42;;
43124;SDS011;49182;50.788;7.318;2023-05-19T12:44:54;5.10;;;1.33;;
43124;SDS011;49182;50.788;7.318;2023-05-19T12:47:21;3.28;;;1.38;;
43124;SDS011;49182;50.788;7.318;2023-05-19T12:49:53;4.93;;;1.40;;
43124;SDS011;49182;50.788;7.318;2023-05-19T12:52:20;3.40;;;1.48;;
43124;SDS011;49182;50.788;7.318;2023-05-19T12:54:47;4.55;;;1.35;;
43124;SDS011;49182;50.788;7.318;2023-05-19T12:57:16;3.38;;;1.27;;
43124;SDS011;49182;50.788;7.318;2023-05-19T12:59:43;3.83;;;1.40;;
43124;SDS011;49182;50.788;7.318;2023-05-19T13:02:10;7.20;;;1.40;;
43124;SDS011;49182;50.788;7.318;2023-05-19T13:04:36;4.95;;;1.38;;
43124;SDS011;49182;50.788;7.318;2023-05-19T13:07:03;6.93;;;1.20;;
43124;SDS011;49182;50.788;7.318;2023-05-19T13:09:30;4.78;;;1.30;;
43124;SDS011;49182;50.788;7.318;2023-05-19T13:11:56;3.45;;;1.00;;
43124;SDS011;49182;50.788;7.318;2023-05-19T13:14:26;3.03;;;1.10;;
43124;SDS011;49182;50.788;7.318;2023-05-19T13:16:52;5.18;;;1.92;;
43124;SDS011;49182;50.788;7.318;2023-05-19T13:19:19;4.25;;;1.52;;
43124;SDS011;49182;50.788;7.318;2023-05-19T13:21:48;3.20;;;1.13;;
43124;SDS011;49182;50.788;7.318;2023-05-19T13:24:15;4.20;;;1.20;;
43124;SDS011;49182;50.788;7.318;2023-05-19T13:26:42;6.50;;;0.80;;
43124;SDS011;49182;50.788;7.318;2023-05-19T13:29:09;5.43;;;1.38;;
43124;SDS011;49182;50.788;7.318;2023-05-19T13:31:36;4.53;;;1.25;;
43124;SDS011;49182;50.788;7.318;2023-05-19T13:34:03;4.53;;;1.17;;
43124;SDS011;49182;50.788;7.318;2023-05-19T13:36:30;4.20;;;1.25;;
43124;SDS011;49182;50.788;7.318;2023-05-19T13:38:57;3.33;;;1.00;;
43124;SDS011;49182;50.788;7.318;2023-05-19T13:41:23;4.72;;;1.50;;
43124;SDS011;49182;50.788;7.318;2023-05-19T13:43:50;4.55;;;1.30;;
43124;SDS011;49182;50.788;7.318;2023-05-19T13:46:17;5.35;;;1.45;;
43124;SDS011;49182;50.788;7.318;2023-05-19T13:48:53;3.75;;;1.13;;
43124;SDS011;49182;50.788;7.318;2023-05-19T13:51:20;3.05;;;0.98;;
43124;SDS011;49182;50.788;7.318;2023-05-19T13:53:46;3.75;;;1.25;;
43124;SDS011;49182;50.788;7.318;2023-05-19T13:56:13;5.57;;;1.42;;
43124;SDS011;49182;50.788;7.318;2023-05-19T13:58:39;3.95;;;1.05;;
43124;SDS011;49182;50.788;7.318;2023-05-19T14:01:06;3.65;;;1.00;;
43124;SDS011;49182;50.788;7.318;2023-05-19T14:03:33;3.33;;;1.10;;
43124;SDS011;49182;50.788;7.318;2023-05-19T14:06:01;3.97;;;1.02;;
43124;SDS011;49182;50.788;7.318;2023-05-19T14:08:28;3.15;;;1.00;;
43124;SDS011;49182;50.788;7.318;2023-05-19T14:10:54;2.33;;;0.93;;
43124;SDS011;49182;50.788;7.318;2023-05-19T14:13:21;4.20;;;1.42;;
43124;SDS011;49182;50.788;7.318;2023-05-19T14:15:58;2.85;;;0.90;;
43124;SDS011;49182;50.788;7.318;2023-05-19T14:18:24;5.47;;;1.20;;
43124;SDS011;49182;50.788;7.318;2023-05-19T14:20:51;4.05;;;1.10;;
43124;SDS011;49182;50.788;7.318;2023-05-19T14:23:19;5.03;;;1.40;;
43124;SDS011;49182;50.788;7.318;2023-05-19T14:25:46;6.75;;;1.42;;
43124;SDS011;49182;50.788;7.318;2023-05-19T14:28:12;4.07;;;1.00;;
43124;SDS011;49182;50.788;7.318;2023-05-19T14:30:39;2.88;;;0.98;;
43124;SDS011;49182;50.788;7.318;2023-05-19T14:33:06;3.80;;;1.00;;
43124;SDS011;49182;50.788;7.318;2023-05-19T14:35:33;12.38;;;1.17;;
43124;SDS011;49182;50.788;7.318;2023-05-19T14:37:59;4.55;;;1.20;;
43124;SDS011;49182;50.788;7.318;2023-05-19T14:40:28;3.65;;;1.10;;
43124;SDS011;49182;50.788;7.318;2023-05-19T14:42:55;5.03;;;1.13;;
43124;SDS011;49182;50.788;7.318;2023-05-19T14:45:22;2.75;;;0.90;;
43124;SDS011;49182;50.788;7.318;2023-05-19T14:47:48;4.22;;;1.20;;
43124;SDS011;49182;50.788;7.318;2023-05-19T14:50:15;3.17;;;1.00;;
43124;SDS011;49182;50.788;7.318;2023-05-19T14:52:42;7.85;;;1.80;;
43124;SDS011;49182;50.788;7.318;2023-05-19T14:55:08;3.13;;;1.05;;
43124;SDS011;49182;50.788;7.318;2023-05-19T14:57:39;4.82;;;1.25;;